Time;durP1;ratioP1;P1;durP2;ratioP2;P2;SDS_P1;SDS_P2;PMS_P1;PMS_P2;Temp;Humidity;BMP_temperature;BMP_pressure;BME280_temperature;BME280_humidity;BME280_pressure;Samples;Min_cycle;Max_cycle;Signal;HPM_P1;HPM_P2
2023/10/09 00:01:31;;;;;;;27.95;14.35;;;15.00;99.90;;;;;;5053255;28;20028;-71
2023/10/09 00:04:01;;;;;;;22.88;12.90;;;15.00;99.90;;;;;;5052298;28;20025;-71
2023/10/09 00:06:38;;;;;;;33.03;14.77;;;15.00;99.90;;;;;;5052873;28;20071;-71
2023/10/09 00:09:30;;;;;;;22.65;13.02;;;14.90;99.90;;;;;;5052444;28;20032;-71
2023/10/09 00:11:57;;;;;;;28.95;15.57;;;14.90;99.90;;;;;;5051641;28;20036;-71
2023/10/09 00:14:38;;;;;;;26.42;13.77;;;14.90;99.90;;;;;;5050887;28;20017;-71
2023/10/09 00:19:37;;;;;;;24.05;13.10;;;15.00;99.90;;;;;;5052479;28;20036;-71
2023/10/09 00:22:20;;;;;;;27.40;15.55;;;15.00;99.90;;;;;;5052407;28;20507;-71
2023/10/09 00:24:49;;;;;;;25.15;14.10;;;15.00;99.90;;;;;;5052074;28;20017;-71
2023/10/09 00:27:19;;;;;;;32.03;15.38;;;15.00;99.90;;;;;;5051320;28;20174;-71
2023/10/09 00:29:45;;;;;;;28.10;16.60;;;15.00;99.90;;;;;;5051968;28;20395;-71
2023/10/09 00:32:26;;;;;;;26.55;15.77;;;15.00;99.90;;;;;;5052866;28;20032;-70
2023/10/09 00:34:52;;;;;;;;;;;15.00;99.90;;;;;;5051047;28;20175;-72
2023/10/09 00:37:25;;;;;;;26.13;15.75;;;15.10;99.90;;;;;;5052378;28;19995;-70
2023/10/09 00:39:58;;;;;;;23.23;15.70;;;15.10;99.90;;;;;;5052231;28;20463;-70
2023/10/09 00:42:29;;;;;;;30.88;16.90;;;15.10;99.90;;;;;;5052357;28;20071;-70
2023/10/09 00:44:56;;;;;;;28.55;16.48;;;15.10;99.90;;;;;;5051901;28;20028;-71
2023/10/09 00:47:26;;;;;;;27.08;16.13;;;15.10;99.90;;;;;;5051002;28;20047;-70
2023/10/09 00:50:21;;;;;;;25.40;14.98;;;15.10;99.90;;;;;;5050141;28;20052;-70
2023/10/09 00:52:51;;;;;;;29.23;15.95;;;15.10;99.90;;;;;;5051991;28;20111;-70
2023/10/09 00:55:45;;;;;;;30.23;15.45;;;15.10;99.90;;;;;;5051645;28;20025;-70
2023/10/09 00:58:14;;;;;;;21.83;12.88;;;15.10;99.90;;;;;;5052024;28;20044;-71
2023/10/09 01:05:51;;;;;;;29.00;16.58;;;15.20;99.90;;;;;;5052070;28;20494;-70
2023/10/09 01:11:09;;;;;;;30.00;16.92;;;15.10;99.90;;;;;;5051824;28;20076;-71
2023/10/09 01:16:16;;;;;;;34.28;19.75;;;15.10;99.90;;;;;;5052127;28;20514;-71
2023/10/09 01:18:49;;;;;;;29.63;18.38;;;15.10;99.90;;;;;;5051361;28;20029;-71
2023/10/09 01:21:14;;;;;;;35.50;19.52;;;15.20;99.90;;;;;;5051879;28;20438;-71
2023/10/09 01:24:03;;;;;;;36.03;19.45;;;15.20;99.90;;;;;;5051152;28;20037;-70
2023/10/09 01:26:46;;;;;;;30.63;19.25;;;15.10;99.90;;;;;;5051984;28;20052;-71
2023/10/09 01:29:19;;;;;;;30.20;19.13;;;15.10;99.90;;;;;;5051199;28;20021;-71
2023/10/09 01:31:55;;;;;;;28.30;18.25;;;15.20;99.90;;;;;;5051782;28;20036;-71
2023/10/09 01:34:24;;;;;;;34.08;19.77;;;15.10;99.90;;;;;;5050741;28;20051;-71
2023/10/09 01:36:53;;;;;;;29.23;18.88;;;15.10;99.90;;;;;;5056026;28;20021;-70
2023/10/09 01:39:23;;;;;;;33.83;18.70;;;15.10;99.90;;;;;;5055146;28;20151;-71
2023/10/09 01:41:57;;;;;;;30.50;20.20;;;15.20;99.90;;;;;;5055704;28;20033;-71
2023/10/09 01:44:25;;;;;;;40.28;21.98;;;15.20;99.90;;;;;;5053887;28;20029;-70
2023/10/09 01:46:54;;;;;;;34.92;21.00;;;15.20;99.90;;;;;;5055698;28;20021;-71
2023/10/09 01:49:29;;;;;;;38.53;22.15;;;15.20;99.90;;;;;;5054730;28;20128;-71
2023/10/09 01:52:08;;;;;;;36.30;21.52;;;15.30;99.90;;;;;;5055574;28;20379;-70
2023/10/09 01:54:38;;;;;;;36.90;22.88;;;15.30;99.90;;;;;;5055011;28;20444;-71
2023/10/09 01:57:05;;;;;;;32.90;20.95;;;15.30;99.90;;;;;;5055441;28;20014;-71
2023/10/09 01:59:32;;;;;;;35.22;22.08;;;15.30;99.90;;;;;;5055039;28;20096;-71
2023/10/09 02:02:00;;;;;;;43.03;23.83;;;15.30;99.90;;;;;;5055308;28;20013;-71
2023/10/09 02:04:26;;;;;;;36.17;22.23;;;15.30;99.90;;;;;;5054904;28;20028;-70
2023/10/09 02:06:52;;;;;;;32.83;21.77;;;15.40;99.90;;;;;;5054115;28;20052;-71
2023/10/09 02:09:25;;;;;;;35.33;23.13;;;15.40;99.90;;;;;;5054506;28;20472;-71
2023/10/09 02:11:51;;;;;;;37.13;21.70;;;15.40;99.90;;;;;;5055283;28;20029;-71
2023/10/09 02:14:20;;;;;;;32.95;21.00;;;15.50;99.90;;;;;;5054591;28;20024;-71
2023/10/09 02:19:38;;;;;;;37.75;23.50;;;15.50;99.90;;;;;;5054555;28;20454;-71
2023/10/09 02:22:13;;;;;;;42.33;23.77;;;15.50;99.90;;;;;;5055108;28;20125;-71
2023/10/09 02:24:58;;;;;;;40.65;24.85;;;15.50;99.90;;;;;;5054552;28;20017;-70
2023/10/09 02:30:15;;;;;;;41.90;24.42;;;15.60;99.90;;;;;;5054767;28;20040;-71
2023/10/09 02:32:42;;;;;;;39.25;23.95;;;15.60;99.90;;;;;;5054891;28;20162;-71
2023/10/09 02:35:20;;;;;;;35.38;23.00;;;15.60;99.90;;;;;;5054557;28;20025;-71
2023/10/09 02:37:46;;;;;;;41.35;23.58;;;15.60;99.90;;;;;;5054940;28;20107;-71
2023/10/09 02:40:23;;;;;;;33.17;21.27;;;15.70;99.90;;;;;;5054233;28;20028;-71
2023/10/09 02:42:49;;;;;;;34.28;22.58;;;15.70;99.90;;;;;;5054754;28;20056;-71
2023/10/09 02:45:17;;;;;;;36.60;21.77;;;15.70;99.90;;;;;;5053843;28;20545;-71
2023/10/09 02:47:48;;;;;;;40.67;23.80;;;15.70;99.90;;;;;;5054606;28;20565;-71
2023/10/09 02:50:20;;;;;;;39.25;22.65;;;15.70;99.90;;;;;;5053757;28;20037;-71
2023/10/09 02:52:52;;;;;;;36.25;22.33;;;15.80;99.90;;;;;;5054678;28;20052;-71
2023/10/09 02:55:24;;;;;;;35.80;22.48;;;15.80;99.90;;;;;;5054003;28;20053;-71
2023/10/09 02:58:05;;;;;;;36.70;22.20;;;15.80;99.90;;;;;;5053269;28;20509;-71
2023/10/09 03:00:32;;;;;;;35.33;22.05;;;15.80;99.90;;;;;;5054092;28;20025;-70
2023/10/09 03:02:58;;;;;;;34.25;23.27;;;15.90;99.90;;;;;;5053101;28;20112;-71
2023/10/09 03:05:28;;;;;;;38.88;23.25;;;15.90;99.90;;;;;;5053869;28;20045;-71
2023/10/09 03:07:55;;;;;;;34.50;22.70;;;15.90;99.90;;;;;;5054384;28;20024;-71
2023/10/09 03:10:23;;;;;;;35.58;22.05;;;15.90;99.90;;;;;;5052353;28;20604;-71
2023/10/09 03:12:56;;;;;;;35.33;23.15;;;15.90;99.90;;;;;;5054204;28;20021;-71
2023/10/09 03:15:22;;;;;;;32.75;22.00;;;15.90;99.90;;;;;;5053436;28;20020;-71
2023/10/09 03:17:48;;;;;;;37.00;22.90;;;15.90;99.90;;;;;;5054356;28;20415;-71
2023/10/09 03:20:17;;;;;;;30.13;20.55;;;15.90;99.90;;;;;;5052128;28;20434;-71
2023/10/09 03:22:44;;;;;;;36.65;21.15;;;16.00;99.90;;;;;;5052504;28;20391;-71
2023/10/09 03:25:19;;;;;;;35.20;22.60;;;15.90;99.90;;;;;;5052008;28;20021;-70
2023/10/09 03:27:45;;;;;;;33.08;20.35;;;16.00;99.90;;;;;;5053890;28;20017;-70
2023/10/09 03:30:17;;;;;;;25.27;19.30;;;15.90;99.90;;;;;;5053430;28;20434;-71
2023/10/09 03:32:50;;;;;;;32.88;22.20;;;16.00;99.90;;;;;;5053779;28;20107;-71
2023/10/09 03:35:23;;;;;;;36.88;21.73;;;16.00;99.90;;;;;;5051786;28;20402;-71
2023/10/09 03:37:56;;;;;;;37.78;22.40;;;16.00;99.90;;;;;;5052403;28;20376;-71
2023/10/09 03:40:23;;;;;;;28.98;18.92;;;16.00;99.90;;;;;;5051796;28;20510;-71
2023/10/09 03:42:49;;;;;;;29.17;20.92;;;16.00;99.90;;;;;;5053437;28;20151;-70
2023/10/09 03:45:35;;;;;;;25.70;20.00;;;16.00;99.90;;;;;;5053024;28;20104;-71
2023/10/09 03:48:04;;;;;;;29.40;19.48;;;16.00;99.90;;;;;;5053316;28;20075;-71
2023/10/09 03:50:35;;;;;;;31.05;19.88;;;16.10;99.90;;;;;;5052742;28;20048;-71
2023/10/09 03:53:03;;;;;;;28.60;19.38;;;16.10;99.90;;;;;;5053614;28;20052;-70
2023/10/09 03:55:29;;;;;;;31.52;21.08;;;16.10;99.90;;;;;;5051510;28;20031;-71
2023/10/09 03:57:59;;;;;;;31.95;20.27;;;16.10;99.90;;;;;;5052726;28;20029;-71
2023/10/09 04:00:27;;;;;;;23.55;18.45;;;16.10;99.90;;;;;;5052689;28;20048;-71
2023/10/09 04:02:57;;;;;;;29.17;19.67;;;16.10;99.90;;;;;;5051774;28;20056;-70
2023/10/09 04:05:24;;;;;;;29.63;19.90;;;16.10;99.90;;;;;;5052577;28;20477;-70
2023/10/09 04:07:53;;;;;;;25.13;17.35;;;16.10;99.90;;;;;;5052986;28;20518;-71
2023/10/09 04:13:03;;;;;;;26.65;17.92;;;16.10;99.90;;;;;;5053200;28;20032;-71
2023/10/09 04:15:30;;;;;;;23.58;17.08;;;16.10;99.90;;;;;;5052275;28;20475;-70
2023/10/09 04:17:56;;;;;;;26.23;18.00;;;16.20;99.90;;;;;;5051644;28;20020;-71
2023/10/09 04:22:51;;;;;;;26.55;18.70;;;16.20;99.90;;;;;;5052825;28;20483;-71
2023/10/09 04:25:27;;;;;;;25.00;16.83;;;16.20;99.90;;;;;;5052094;28;20021;-71
2023/10/09 04:27:59;;;;;;;30.08;17.67;;;16.20;99.90;;;;;;5052779;28;20515;-71
2023/10/09 04:30:26;;;;;;;22.88;17.42;;;16.30;99.90;;;;;;5050804;28;20128;-70
2023/10/09 04:32:55;;;;;;;24.88;17.40;;;16.30;99.90;;;;;;5052588;28;20028;-71
2023/10/09 04:35:24;;;;;;;26.17;16.33;;;16.30;99.90;;;;;;5050605;28;20060;-70
2023/10/09 04:37:59;;;;;;;25.30;17.38;;;16.30;99.90;;;;;;5051182;28;20028;-71
2023/10/09 04:43:20;;;;;;;26.83;17.45;;;16.30;99.90;;;;;;5052466;28;20048;-71
2023/10/09 04:48:32;;;;;;;28.35;17.58;;;16.30;99.90;;;;;;5052456;28;20040;-71
2023/10/09 04:53:50;;;;;;;25.80;17.90;;;16.30;99.90;;;;;;5052435;28;20036;-71
2023/10/09 04:56:16;;;;;;;26.02;16.85;;;16.30;99.90;;;;;;5052144;28;20032;-71
2023/10/09 04:58:44;;;;;;;20.45;14.77;;;16.40;99.90;;;;;;5052162;28;20025;-71
2023/10/09 05:01:13;;;;;;;24.48;17.48;;;16.40;99.90;;;;;;5050073;28;20025;-71
2023/10/09 05:08:54;;;;;;;21.42;14.57;;;16.40;99.90;;;;;;5039770;28;20025;-71
2023/10/09 05:11:53;;;;;;;25.52;16.40;;;16.40;99.90;;;;;;5051696;28;20031;-70
2023/10/09 05:14:38;;;;;;;24.33;16.85;;;16.40;99.90;;;;;;5050278;28;20028;-71
2023/10/09 05:17:09;;;;;;;21.73;15.13;;;16.40;99.90;;;;;;5051989;28;20024;-71
2023/10/09 05:19:54;;;;;;;;;;;16.50;99.90;;;;;;5052282;28;20150;-71
2023/10/09 05:22:29;;;;;;;26.35;16.73;;;16.50;99.90;;;;;;5051939;28;19935;-71
2023/10/09 05:24:57;;;;;;;25.08;15.90;;;16.50;99.90;;;;;;5051370;28;20392;-71
2023/10/09 05:30:26;;;;;;;21.80;14.23;;;16.50;99.90;;;;;;5048815;28;20029;-71
2023/10/09 05:32:58;;;;;;;23.58;15.50;;;16.50;99.90;;;;;;5049541;28;20487;-71
2023/10/09 05:35:39;;;;;;;26.08;17.02;;;16.50;99.90;;;;;;5032132;28;20047;-71
2023/10/09 05:38:15;;;;;;;23.80;14.75;;;16.50;99.90;;;;;;5049351;28;20109;-70
2023/10/09 05:40:43;;;;;;;26.75;17.60;;;16.50;99.90;;;;;;5048894;28;20025;-71
2023/10/09 05:44:22;;;;;;;23.52;16.08;;;16.50;99.90;;;;;;5049256;28;20025;-71
2023/10/09 05:46:08;;;;;;;28.73;16.77;;;16.50;99.90;;;;;;5048603;28;20104;-71
2023/10/09 05:48:54;;;;;;;22.73;15.20;;;16.60;99.90;;;;;;5049393;28;20036;-70
2023/10/09 05:51:41;;;;;;;22.73;15.68;;;16.60;99.90;;;;;;5048525;28;20247;-70
2023/10/09 05:54:12;;;;;;;21.85;14.40;;;16.60;99.90;;;;;;5048968;28;20036;-71
2023/10/09 06:04:54;;;;;;;23.17;15.13;;;16.60;99.90;;;;;;5051193;28;20514;-71
2023/10/09 06:07:24;;;;;;;26.60;16.55;;;16.60;99.90;;;;;;5050260;28;20028;-71
2023/10/09 06:09:52;;;;;;;26.23;16.13;;;16.60;99.90;;;;;;5050924;28;20090;-71
2023/10/09 06:12:49;;;;;;;20.63;15.07;;;16.60;99.90;;;;;;5051404;28;20090;-70
2023/10/09 06:15:50;;;;;;;26.40;15.55;;;16.60;99.90;;;;;;5050819;28;20025;-71
2023/10/09 06:18:33;;;;;;;26.77;16.75;;;16.60;99.90;;;;;;5051106;28;20115;-71
2023/10/09 06:26:24;;;;;;;27.75;16.35;;;16.60;99.90;;;;;;5054413;28;20464;-71
2023/10/09 06:29:13;;;;;;;27.45;15.40;;;16.60;99.90;;;;;;5055016;28;20037;-71
2023/10/09 06:34:32;;;;;;;23.35;15.85;;;16.70;99.90;;;;;;5054599;28;20039;-71
2023/10/09 06:37:34;;;;;;;22.55;15.27;;;16.70;99.90;;;;;;5055079;28;20024;-71
2023/10/09 06:42:43;;;;;;;24.05;15.48;;;16.60;99.90;;;;;;5054821;28;20029;-71
2023/10/09 06:47:55;;;;;;;22.50;15.70;;;16.70;99.90;;;;;;5054698;28;20031;-71
2023/10/09 06:52:57;;;;;;;26.23;16.58;;;16.70;99.90;;;;;;5054476;28;20048;-71
2023/10/09 06:55:44;;;;;;;21.85;15.65;;;16.70;99.90;;;;;;5053880;28;20033;-71
2023/10/09 06:58:09;;;;;;;19.73;14.48;;;16.70;99.90;;;;;;5054356;28;20059;-71
2023/10/09 07:01:19;;;;;;;23.75;14.52;;;16.80;99.90;;;;;;5052376;28;20017;-71
2023/10/09 07:03:52;;;;;;;25.20;15.23;;;16.80;99.90;;;;;;5054096;28;20041;-70
2023/10/09 07:06:24;;;;;;;22.50;15.20;;;16.80;99.90;;;;;;5053634;28;20025;-69
2023/10/09 07:17:15;;;;;;;26.40;16.75;;;16.80;99.90;;;;;;5054035;28;20036;-70
2023/10/09 07:24:56;;;;;;;27.05;15.90;;;16.80;99.90;;;;;;5053530;28;20033;-69
2023/10/09 07:27:48;;;;;;;23.85;16.30;;;16.90;99.90;;;;;;5052630;28;20478;-69
2023/10/09 07:33:04;;;;;;;28.02;18.15;;;16.90;99.90;;;;;;5052811;28;20110;-69
2023/10/09 07:38:22;;;;;;;26.20;17.05;;;16.90;99.90;;;;;;5054095;28;20044;-69
2023/10/09 07:43:45;;;;;;;23.48;15.88;;;17.00;99.90;;;;;;5053826;28;20110;-69
2023/10/09 07:46:32;;;;;;;32.53;17.35;;;17.00;99.90;;;;;;5051861;28;20221;-69
2023/10/09 07:49:08;;;;;;;24.60;16.67;;;17.00;99.90;;;;;;5053406;28;20025;-69
2023/10/09 07:51:36;;;;;;;25.50;15.88;;;17.00;99.90;;;;;;5052706;28;20032;-69
2023/10/09 07:54:08;;;;;;;21.92;15.63;;;17.00;99.90;;;;;;5053322;28;20415;-69
2023/10/09 07:56:41;;;;;;;27.02;17.70;;;17.00;99.90;;;;;;5052681;28;20032;-69
2023/10/09 07:59:11;;;;;;;21.27;13.68;;;17.00;99.90;;;;;;5053256;28;20028;-69
2023/10/09 08:01:54;;;;;;;23.80;14.45;;;17.00;99.90;;;;;;5052459;28;20033;-69
2023/10/09 08:04:37;;;;;;;27.50;16.52;;;17.00;99.90;;;;;;5053163;28;20055;-69
2023/10/09 08:07:07;;;;;;;27.80;17.00;;;17.00;99.90;;;;;;5051720;28;20013;-69
2023/10/09 08:15:20;;;;;;;20.88;14.30;;;17.10;99.90;;;;;;5052680;28;20407;-69
2023/10/09 08:17:53;;;;;;;27.13;15.65;;;17.20;99.90;;;;;;5052764;28;20191;-69
2023/10/09 08:20:25;;;;;;;30.80;16.85;;;17.20;99.90;;;;;;5052324;28;20020;-69
2023/10/09 08:22:58;;;;;;;28.20;16.48;;;17.30;99.90;;;;;;5052724;28;20080;-69
2023/10/09 08:25:28;;;;;;;22.80;13.50;;;17.30;99.90;;;;;;5052267;28;20017;-69
2023/10/09 08:28:38;;;;;;;28.90;16.17;;;17.30;99.90;;;;;;5051481;28;20025;-69
2023/10/09 08:36:04;;;;;;;20.35;14.35;;;17.40;99.90;;;;;;5052066;28;20029;-69
2023/10/09 08:38:33;;;;;;;25.85;15.15;;;17.50;99.90;;;;;;5052633;28;20108;-69
2023/10/09 08:41:22;;;;;;;23.80;15.75;;;17.50;99.90;;;;;;5052039;28;20017;-69
2023/10/09 08:43:52;;;;;;;19.00;13.15;;;17.60;99.90;;;;;;5052347;28;20032;-69
2023/10/09 08:46:29;;;;;;;25.55;14.73;;;17.60;99.90;;;;;;5050727;28;20017;-69
2023/10/09 08:48:58;;;;;;;21.40;13.77;;;17.60;99.90;;;;;;5052181;28;20044;-69
2023/10/09 08:51:26;;;;;;;18.85;13.40;;;17.70;99.90;;;;;;5051936;28;20025;-69
2023/10/09 08:53:52;;;;;;;24.13;13.90;;;17.70;99.90;;;;;;5052388;28;20024;-69
2023/10/09 08:56:23;;;;;;;24.90;13.95;;;17.80;99.90;;;;;;5051676;28;20479;-70
2023/10/09 08:58:57;;;;;;;23.70;13.80;;;17.80;99.90;;;;;;5052218;28;20526;-69
2023/10/09 09:01:24;;;;;;;26.75;15.27;;;17.90;99.90;;;;;;5051448;28;20159;-69
2023/10/09 09:03:51;;;;;;;20.75;14.88;;;17.90;99.90;;;;;;5051909;28;20025;-69
2023/10/09 09:06:20;;;;;;;20.85;13.63;;;18.00;99.90;;;;;;5051689;28;20036;-69
2023/10/09 09:08:47;;;;;;;23.88;15.10;;;18.00;99.90;;;;;;5051989;28;20021;-69
2023/10/09 09:13:49;;;;;;;19.50;13.60;;;18.20;99.90;;;;;;5052085;28;20184;-69
2023/10/09 09:16:29;;;;;;;21.27;13.75;;;18.20;99.90;;;;;;5051360;28;20028;-69
2023/10/09 09:19:03;;;;;;;20.17;12.30;;;18.20;99.90;;;;;;5051983;28;20052;-69
2023/10/09 09:21:29;;;;;;;23.55;13.75;;;18.30;99.90;;;;;;5051512;28;20021;-70
2023/10/09 09:24:06;;;;;;;25.48;14.65;;;18.30;99.90;;;;;;5051892;28;20029;-69
2023/10/09 09:26:46;;;;;;;22.52;13.57;;;18.30;99.90;;;;;;5051373;28;20017;-69
2023/10/09 09:29:19;;;;;;;24.92;12.70;;;18.40;99.90;;;;;;5050842;28;20082;-69
2023/10/09 09:31:53;;;;;;;27.63;15.57;;;18.40;99.90;;;;;;5051361;28;20177;-69
2023/10/09 09:34:25;;;;;;;25.45;14.68;;;18.40;99.90;;;;;;5052212;28;20029;-69
2023/10/09 09:36:58;;;;;;;23.02;13.88;;;18.50;99.90;;;;;;5051093;28;20595;-69
2023/10/09 09:39:28;;;;;;;23.80;14.13;;;18.50;99.90;;;;;;5051951;28;20416;-69
2023/10/09 09:42:13;;;;;;;24.83;13.48;;;18.50;99.90;;;;;;5051115;28;20017;-69
2023/10/09 09:44:48;;;;;;;22.48;13.85;;;18.50;99.90;;;;;;5051790;28;20170;-69
2023/10/09 09:47:25;;;;;;;22.58;14.25;;;18.60;99.90;;;;;;5051210;28;20013;-69
2023/10/09 09:49:59;;;;;;;21.02;14.07;;;18.60;99.90;;;;;;5051000;28;20099;-69
2023/10/09 09:52:27;;;;;;;20.60;13.82;;;18.60;99.90;;;;;;5051572;28;20075;-69
2023/10/09 09:54:53;;;;;;;18.67;12.02;;;18.70;99.90;;;;;;5051524;28;20036;-69
2023/10/09 09:57:25;;;;;;;19.08;12.52;;;18.80;99.90;;;;;;5055193;28;20073;-69
2023/10/09 09:59:55;;;;;;;17.83;11.65;;;18.80;99.90;;;;;;5054070;28;20028;-69
2023/10/09 10:02:33;;;;;;;20.17;12.88;;;18.80;99.90;;;;;;5054944;28;20039;-69
2023/10/09 10:05:03;;;;;;;21.85;12.00;;;18.90;99.90;;;;;;5055400;28;20044;-69
2023/10/09 10:07:39;;;;;;;19.00;12.73;;;18.90;99.90;;;;;;5053964;28;20021;-69
2023/10/09 10:10:34;;;;;;;21.70;12.10;;;18.90;99.90;;;;;;5053643;28;20056;-69
2023/10/09 10:13:02;;;;;;;21.63;11.70;;;19.00;99.90;;;;;;5055219;28;20502;-70
2023/10/09 10:16:02;;;;;;;18.67;11.48;;;19.00;99.90;;;;;;5054743;28;20052;-69
2023/10/09 10:18:32;;;;;;;19.75;11.85;;;19.10;99.90;;;;;;5055163;28;20395;-70
2023/10/09 10:22:01;;;;;;;17.83;10.63;;;19.10;99.90;;;;;;5054493;28;20079;-69
2023/10/09 10:24:06;;;;;;;17.85;10.50;;;19.20;99.90;;;;;;5050824;28;20299;-69
2023/10/09 10:26:35;;;;;;;19.95;10.95;;;19.20;99.90;;;;;;5054415;28;20028;-69
2023/10/09 10:29:24;;;;;;;16.42;10.27;;;19.30;99.90;;;;;;5055468;28;20031;-69
2023/10/09 10:32:01;;;;;;;20.35;10.65;;;19.30;99.90;;;;;;5054458;28;20040;-69
2023/10/09 10:35:10;;;;;;;13.63;8.95;;;19.30;99.90;;;;;;5053595;28;20017;-69
2023/10/09 10:37:44;;;;;;;18.00;10.20;;;19.40;99.90;;;;;;5054541;28;20025;-69
2023/10/09 10:40:37;;;;;;;15.50;9.57;;;19.40;99.90;;;;;;5054513;28;20033;-69
2023/10/09 10:43:30;;;;;;;16.20;8.95;;;19.50;99.90;;;;;;5054528;28;20067;-69
2023/10/09 10:46:23;;;;;;;17.83;9.52;;;19.50;99.90;;;;;;5054013;28;20033;-70
2023/10/09 10:48:58;;;;;;;15.88;9.45;;;19.50;99.90;;;;;;5054285;28;20510;-69
2023/10/09 10:51:39;;;;;;;16.92;9.73;;;19.60;99.90;;;;;;5053797;28;20028;-70
2023/10/09 10:56:53;;;;;;;17.98;8.65;;;19.60;99.90;;;;;;5053754;28;20285;-69
2023/10/09 10:59:26;;;;;;;16.55;9.40;;;19.70;99.90;;;;;;5054514;28;20032;-70
2023/10/09 11:01:53;;;;;;;15.82;8.93;;;19.70;99.90;;;;;;5053753;28;20025;-70
2023/10/09 11:15:37;;;;;;;13.15;6.97;;;19.90;99.90;;;;;;5053471;28;20028;-70
2023/10/09 11:18:07;;;;;;;16.05;7.50;;;20.00;99.90;;;;;;5054191;28;20029;-69
2023/10/09 11:20:35;;;;;;;15.90;8.10;;;20.00;99.90;;;;;;5053803;28;20017;-69
2023/10/09 11:25:52;;;;;;;14.50;7.95;;;20.10;99.90;;;;;;5053646;28;20039;-69
2023/10/09 11:28:47;;;;;;;13.35;7.47;;;20.20;99.90;;;;;;5053850;28;20104;-69
2023/10/09 11:31:16;;;;;;;12.15;7.53;;;20.20;99.90;;;;;;5053339;28;20052;-70
2023/10/09 11:33:52;;;;;;;12.63;7.57;;;20.20;99.90;;;;;;5053955;28;20041;-70
2023/10/09 11:36:32;;;;;;;16.20;8.15;;;20.30;99.90;;;;;;5053116;28;20029;-69
2023/10/09 11:39:22;;;;;;;14.60;7.43;;;20.30;99.90;;;;;;5053918;28;20044;-69
2023/10/09 11:41:55;;;;;;;14.10;7.22;;;20.30;99.90;;;;;;5051829;28;20021;-69
2023/10/09 11:44:55;;;;;;;14.77;7.80;;;20.30;99.90;;;;;;5053610;28;20025;-69
2023/10/09 11:50:12;;;;;;;14.23;7.32;;;20.40;99.90;;;;;;5053634;28;20124;-70
2023/10/09 11:53:19;;;;;;;12.10;7.30;;;20.50;99.90;;;;;;5052929;28;20040;-70
2023/10/09 11:55:49;;;;;;;13.32;5.93;;;20.60;99.90;;;;;;5051664;28;20032;-70
2023/10/09 11:58:24;;;;;;;10.55;5.95;;;20.60;99.90;;;;;;5053338;28;20075;-70
2023/10/09 12:00:59;;;;;;;14.85;6.70;;;20.60;99.90;;;;;;5052679;28;20376;-70
2023/10/09 12:03:29;;;;;;;11.40;6.57;;;20.70;99.90;;;;;;5051776;28;20507;-69
2023/10/09 12:06:04;;;;;;;9.90;6.07;;;20.70;99.90;;;;;;5052772;28;20017;-70
2023/10/09 12:08:30;;;;;;;14.07;5.95;;;20.70;99.90;;;;;;5053104;28;20108;-69
2023/10/09 12:10:56;;;;;;;14.07;6.13;;;20.70;99.90;;;;;;5052406;28;20021;-70
2023/10/09 12:13:25;;;;;;;12.07;5.93;;;20.70;99.90;;;;;;5051705;28;20079;-70
2023/10/09 12:15:54;;;;;;;11.48;5.80;;;20.80;99.90;;;;;;5052269;28;20021;-70
2023/10/09 12:18:22;;;;;;;14.02;5.88;;;20.80;99.90;;;;;;5052469;28;20518;-70
2023/10/09 12:20:51;;;;;;;12.30;5.63;;;20.90;99.90;;;;;;5051100;28;20029;-69
2023/10/09 12:23:21;;;;;;;7.72;5.13;;;20.90;99.90;;;;;;5051407;28;20104;-70
2023/10/09 12:25:50;;;;;;;12.05;6.30;;;20.90;99.90;;;;;;5052379;28;20442;-70
2023/10/09 12:28:20;;;;;;;12.70;4.95;;;20.90;99.90;;;;;;5052623;28;20021;-70
2023/10/09 12:30:50;;;;;;;9.90;5.10;;;20.90;99.90;;;;;;5050886;28;20025;-70
2023/10/09 12:33:16;;;;;;;10.25;5.57;;;20.90;99.90;;;;;;5052481;28;20024;-70
2023/10/09 12:35:45;;;;;;;10.00;5.13;;;20.90;99.90;;;;;;5052191;28;20013;-70
2023/10/09 12:38:12;;;;;;;9.40;4.57;;;20.90;99.90;;;;;;5052309;28;20043;-70
2023/10/09 12:40:40;;;;;;;13.10;4.82;;;20.90;99.90;;;;;;5052169;28;20351;-70
2023/10/09 12:43:15;;;;;;;17.27;5.55;;;20.90;99.90;;;;;;5052007;28;20113;-69
2023/10/09 12:45:42;;;;;;;12.50;5.38;;;20.90;99.90;;;;;;5051970;28;20510;-70
2023/10/09 12:48:09;;;;;;;10.93;5.20;;;20.90;99.90;;;;;;5052093;28;20025;-70
2023/10/09 12:50:41;;;;;;;9.75;4.70;;;21.00;99.90;;;;;;5051754;28;20069;-69
2023/10/09 12:53:08;;;;;;;12.25;4.90;;;21.00;99.90;;;;;;5052043;28;20029;-70
2023/10/09 12:55:43;;;;;;;15.38;5.07;;;21.00;99.90;;;;;;5052462;28;20040;-70
2023/10/09 12:58:14;;;;;;;10.88;5.40;;;21.00;99.90;;;;;;5052227;28;20035;-69
2023/10/09 13:00:44;;;;;;;11.20;5.00;;;21.00;99.90;;;;;;5051853;28;20029;-70
2023/10/09 13:03:19;;;;;;;12.82;5.55;;;21.00;99.90;;;;;;5050694;28;20175;-70
2023/10/09 13:05:53;;;;;;;12.13;5.00;;;20.90;99.90;;;;;;5051812;28;20064;-70
2023/10/09 13:08:21;;;;;;;8.82;4.88;;;20.90;99.90;;;;;;5051876;28;20025;-70
2023/10/09 13:11:00;;;;;;;12.38;4.88;;;20.90;99.90;;;;;;5051550;28;20017;-70
2023/10/09 13:13:42;;;;;;;12.73;5.00;;;20.90;99.90;;;;;;5052139;28;20036;-70
2023/10/09 13:16:11;;;;;;;10.48;4.88;;;20.90;99.90;;;;;;5051593;28;20096;-70
2023/10/09 13:18:49;;;;;;;10.43;4.85;;;21.00;99.90;;;;;;5051880;28;20053;-70
2023/10/09 13:21:22;;;;;;;12.45;4.47;;;21.00;99.90;;;;;;5051318;28;20036;-70
2023/10/09 13:23:54;;;;;;;11.93;5.32;;;21.00;99.90;;;;;;5051873;28;20104;-70
2023/10/09 13:26:25;;;;;;;14.45;4.85;;;21.00;99.90;;;;;;5051125;28;20045;-70
2023/10/09 13:28:54;;;;;;;12.55;5.10;;;21.00;99.90;;;;;;5050526;28;20183;-70
2023/10/09 13:31:25;;;;;;;11.17;4.53;;;21.00;99.90;;;;;;5049015;28;20432;-70
2023/10/09 13:33:54;;;;;;;;;;;20.90;99.90;;;;;;5052142;28;20075;-70
2023/10/09 13:36:33;;;;;;;8.52;4.45;;;20.90;99.90;;;;;;5051305;28;20387;-70
2023/10/09 13:39:25;;;;;;;11.85;4.80;;;20.90;99.90;;;;;;5051789;28;20017;-70
2023/10/09 13:41:58;;;;;;;11.52;5.20;;;20.90;99.90;;;;;;5051312;28;20068;-70
2023/10/09 13:44:34;;;;;;;11.68;4.70;;;20.90;99.90;;;;;;5052011;28;20025;-70
2023/10/09 13:47:02;;;;;;;13.73;4.63;;;20.90;99.90;;;;;;5050995;28;20515;-70
2023/10/09 13:49:31;;;;;;;12.13;4.20;;;20.90;99.90;;;;;;5051688;28;20071;-70
2023/10/09 13:52:01;;;;;;;9.82;5.40;;;20.90;99.90;;;;;;5049634;28;20586;-70
2023/10/09 13:54:38;;;;;;;10.32;5.03;;;20.90;99.90;;;;;;5050240;28;20033;-70
2023/10/09 13:57:05;;;;;;;9.95;5.13;;;21.00;99.90;;;;;;5050982;28;20085;-70
2023/10/09 13:59:31;;;;;;;9.82;4.50;;;20.90;99.90;;;;;;5051509;28;20487;-70
2023/10/09 14:01:59;;;;;;;10.70;5.03;;;20.90;99.90;;;;;;5050772;28;20025;-70
2023/10/09 14:04:28;;;;;;;12.68;5.10;;;20.90;99.90;;;;;;5051480;28;20445;-70
2023/10/09 14:06:58;;;;;;;9.35;4.22;;;20.90;99.90;;;;;;5050864;28;20092;-69
2023/10/09 14:09:30;;;;;;;12.73;5.03;;;20.90;99.90;;;;;;5051807;28;20032;-69
2023/10/09 14:12:07;;;;;;;10.52;4.70;;;20.90;99.90;;;;;;5049577;28;20036;-70
2023/10/09 14:14:48;;;;;;;11.48;4.93;;;20.90;99.90;;;;;;5051438;28;20425;-70
2023/10/09 14:17:28;;;;;;;9.38;4.50;;;20.90;99.90;;;;;;5049396;28;20510;-70
2023/10/09 14:20:00;;;;;;;10.85;4.72;;;21.00;99.90;;;;;;5051326;28;20055;-70
2023/10/09 14:22:26;;;;;;;12.25;4.90;;;21.00;99.90;;;;;;5050607;28;20025;-70
2023/10/09 14:24:57;;;;;;;12.15;5.80;;;21.00;99.90;;;;;;5051280;28;20064;-70
2023/10/09 14:27:29;;;;;;;9.88;4.57;;;20.90;99.90;;;;;;5050569;28;20032;-70
2023/10/09 14:29:58;;;;;;;12.85;5.07;;;20.90;99.90;;;;;;5051241;28;20078;-70
2023/10/09 14:32:43;;;;;;;15.70;5.25;;;20.90;99.90;;;;;;5050687;28;20059;-70
2023/10/09 14:35:13;;;;;;;10.63;4.93;;;20.90;99.90;;;;;;5051152;28;20063;-70
2023/10/09 14:37:41;;;;;;;11.67;4.87;;;20.90;99.90;;;;;;5050555;28;20399;-70
2023/10/09 14:40:20;;;;;;;13.93;5.30;;;20.90;99.90;;;;;;5050984;28;20028;-70
2023/10/09 14:42:46;;;;;;;11.00;4.57;;;20.90;99.90;;;;;;5053385;28;20033;-70
2023/10/09 14:45:18;;;;;;;10.35;4.50;;;20.90;99.90;;;;;;5054896;28;20009;-69
2023/10/09 14:47:46;;;;;;;9.73;4.50;;;21.00;99.90;;;;;;5052864;28;20117;-70
2023/10/09 14:50:13;;;;;;;8.32;4.03;;;21.00;99.90;;;;;;5054390;28;20048;-70
2023/10/09 14:52:39;;;;;;;11.73;4.75;;;21.00;99.90;;;;;;5053848;28;20033;-70
2023/10/09 14:55:06;;;;;;;11.75;4.80;;;21.00;99.90;;;;;;5054424;28;20487;-70
2023/10/09 14:57:35;;;;;;;10.15;5.00;;;21.00;99.90;;;;;;5053671;28;20025;-70
2023/10/09 15:00:07;;;;;;;12.35;4.63;;;21.00;99.90;;;;;;5054618;28;20040;-70
2023/10/09 15:02:33;;;;;;;12.38;5.32;;;21.00;99.90;;;;;;5053608;28;20033;-70